sensor_id;sensor_type;location;lat;lon;timestamp;P1;durP1;ratioP1;P2;durP2;ratioP2
7747;SDS011;3918;42.564;23.164;2023-04-03T00:00:05;3.60;;;1.88;;
7747;SDS011;3918;42.564;23.164;2023-04-03T00:02:35;3.10;;;2.35;;
7747;SDS011;3918;42.564;23.164;2023-04-03T00:05:02;3.38;;;2.20;;
7747;SDS011;3918;42.564;23.164;2023-04-03T00:07:29;5.22;;;2.58;;
7747;SDS011;3918;42.564;23.164;2023-04-03T00:09:56;4.90;;;2.60;;
7747;SDS011;3918;42.564;23.164;2023-04-03T00:12:23;6.38;;;2.88;;
7747;SDS011;3918;42.564;23.164;2023-04-03T00:14:51;5.35;;;3.70;;
7747;SDS011;3918;42.564;23.164;2023-04-03T00:17:18;8.27;;;4.55;;
7747;SDS011;3918;42.564;23.164;2023-04-03T00:19:44;12.77;;;4.63;;
7747;SDS011;3918;42.564;23.164;2023-04-03T00:22:11;8.90;;;4.13;;
7747;SDS011;3918;42.564;23.164;2023-04-03T00:24:38;14.88;;;4.47;;
7747;SDS011;3918;42.564;23.164;2023-04-03T00:27:05;6.80;;;3.95;;
7747;SDS011;3918;42.564;23.164;2023-04-03T00:29:31;8.75;;;4.10;;
7747;SDS011;3918;42.564;23.164;2023-04-03T00:31:59;7.05;;;3.67;;
7747;SDS011;3918;42.564;23.164;2023-04-03T00:34:26;9.65;;;4.65;;
7747;SDS011;3918;42.564;23.164;2023-04-03T00:36:53;8.30;;;3.97;;
7747;SDS011;3918;42.564;23.164;2023-04-03T00:39:20;6.22;;;3.10;;
7747;SDS011;3918;42.564;23.164;2023-04-03T00:41:46;3.17;;;2.50;;
7747;SDS011;3918;42.564;23.164;2023-04-03T00:44:18;3.95;;;2.25;;
7747;SDS011;3918;42.564;23.164;2023-04-03T00:46:46;2.63;;;2.40;;
7747;SDS011;3918;42.564;23.164;2023-04-03T00:49:14;2.15;;;2.00;;
7747;SDS011;3918;42.564;23.164;2023-04-03T00:51:41;1.73;;;1.63;;
7747;SDS011;3918;42.564;23.164;2023-04-03T00:54:08;1.42;;;1.42;;
7747;SDS011;3918;42.564;23.164;2023-04-03T00:56:35;1.50;;;1.40;;
7747;SDS011;3918;42.564;23.164;2023-04-03T00:59:04;2.90;;;1.75;;
7747;SDS011;3918;42.564;23.164;2023-04-03T01:01:34;1.52;;;1.40;;
7747;SDS011;3918;42.564;23.164;2023-04-03T01:04:03;1.88;;;1.77;;
7747;SDS011;3918;42.564;23.164;2023-04-03T01:06:34;1.80;;;1.70;;
7747;SDS011;3918;42.564;23.164;2023-04-03T01:09:03;2.25;;;1.73;;
7747;SDS011;3918;42.564;23.164;2023-04-03T01:11:30;2.63;;;2.13;;
7747;SDS011;3918;42.564;23.164;2023-04-03T01:13:56;4.25;;;3.33;;
7747;SDS011;3918;42.564;23.164;2023-04-03T01:16:23;3.33;;;3.00;;
7747;SDS011;3918;42.564;23.164;2023-04-03T01:18:50;2.47;;;1.90;;
7747;SDS011;3918;42.564;23.164;2023-04-03T01:21:27;3.47;;;1.45;;
7747;SDS011;3918;42.564;23.164;2023-04-03T01:24:23;1.38;;;1.27;;
7747;SDS011;3918;42.564;23.164;2023-04-03T01:26:58;1.38;;;1.27;;
7747;SDS011;3918;42.564;23.164;2023-04-03T01:29:27;1.98;;;1.10;;
7747;SDS011;3918;42.564;23.164;2023-04-03T01:31:56;1.30;;;1.20;;
7747;SDS011;3918;42.564;23.164;2023-04-03T01:34:24;1.23;;;1.23;;
7747;SDS011;3918;42.564;23.164;2023-04-03T01:36:51;1.75;;;1.65;;
7747;SDS011;3918;42.564;23.164;2023-04-03T01:39:18;1.80;;;1.70;;
7747;SDS011;3918;42.564;23.164;2023-04-03T01:41:46;1.33;;;1.33;;
7747;SDS011;3918;42.564;23.164;2023-04-03T01:44:12;1.20;;;1.20;;
7747;SDS011;3918;42.564;23.164;2023-04-03T01:46:40;0.95;;;0.95;;
7747;SDS011;3918;42.564;23.164;2023-04-03T01:49:09;1.27;;;1.17;;
7747;SDS011;3918;42.564;23.164;2023-04-03T01:51:35;1.30;;;1.20;;
7747;SDS011;3918;42.564;23.164;2023-04-03T01:54:02;1.30;;;1.30;;
7747;SDS011;3918;42.564;23.164;2023-04-03T01:56:29;1.10;;;1.10;;
7747;SDS011;3918;42.564;23.164;2023-04-03T01:58:55;1.65;;;1.30;;
7747;SDS011;3918;42.564;23.164;2023-04-03T02:01:22;1.20;;;1.17;;
7747;SDS011;3918;42.564;23.164;2023-04-03T02:03:50;2.90;;;1.85;;
7747;SDS011;3918;42.564;23.164;2023-04-03T02:06:18;1.90;;;1.80;;
7747;SDS011;3918;42.564;23.164;2023-04-03T02:08:45;1.63;;;1.52;;
7747;SDS011;3918;42.564;23.164;2023-04-03T02:11:12;1.20;;;1.15;;
7747;SDS011;3918;42.564;23.164;2023-04-03T02:13:39;2.63;;;1.40;;
7747;SDS011;3918;42.564;23.164;2023-04-03T02:16:06;2.80;;;1.20;;
7747;SDS011;3918;42.564;23.164;2023-04-03T02:18:34;1.48;;;1.20;;
7747;SDS011;3918;42.564;23.164;2023-04-03T02:21:01;1.35;;;1.30;;
7747;SDS011;3918;42.564;23.164;2023-04-03T02:23:30;1.33;;;1.30;;
7747;SDS011;3918;42.564;23.164;2023-04-03T02:26:03;1.50;;;1.40;;
7747;SDS011;3918;42.564;23.164;2023-04-03T02:28:34;2.50;;;1.80;;
7747;SDS011;3918;42.564;23.164;2023-04-03T02:31:01;2.22;;;2.03;;
7747;SDS011;3918;42.564;23.164;2023-04-03T02:33:29;4.32;;;2.17;;
7747;SDS011;3918;42.564;23.164;2023-04-03T02:35:56;18.75;;;2.05;;
7747;SDS011;3918;42.564;23.164;2023-04-03T02:38:23;2.05;;;1.88;;
7747;SDS011;3918;42.564;23.164;2023-04-03T02:40:52;2.47;;;2.15;;
7747;SDS011;3918;42.564;23.164;2023-04-03T02:43:18;2.45;;;2.25;;
7747;SDS011;3918;42.564;23.164;2023-04-03T02:45:45;6.63;;;2.70;;
7747;SDS011;3918;42.564;23.164;2023-04-03T02:48:12;2.53;;;2.22;;
7747;SDS011;3918;42.564;23.164;2023-04-03T02:50:39;2.28;;;1.77;;
7747;SDS011;3918;42.564;23.164;2023-04-03T02:53:06;1.83;;;1.73;;
7747;SDS011;3918;42.564;23.164;2023-04-03T02:55:33;1.60;;;1.50;;
7747;SDS011;3918;42.564;23.164;2023-04-03T02:58:01;2.67;;;1.85;;
7747;SDS011;3918;42.564;23.164;2023-04-03T03:00:28;1.40;;;1.40;;
7747;SDS011;3918;42.564;23.164;2023-04-03T03:02:55;2.80;;;1.83;;
7747;SDS011;3918;42.564;23.164;2023-04-03T03:05:22;1.98;;;1.77;;
7747;SDS011;3918;42.564;23.164;2023-04-03T03:07:48;1.80;;;1.70;;
7747;SDS011;3918;42.564;23.164;2023-04-03T03:10:15;3.15;;;2.50;;
7747;SDS011;3918;42.564;23.164;2023-04-03T03:12:42;3.33;;;2.25;;
7747;SDS011;3918;42.564;23.164;2023-04-03T03:15:11;1.95;;;1.85;;
7747;SDS011;3918;42.564;23.164;2023-04-03T03:17:38;2.65;;;2.05;;
7747;SDS011;3918;42.564;23.164;2023-04-03T03:20:05;2.40;;;2.30;;
7747;SDS011;3918;42.564;23.164;2023-04-03T03:22:33;2.58;;;2.38;;
7747;SDS011;3918;42.564;23.164;2023-04-03T03:25:00;2.72;;;2.63;;
7747;SDS011;3918;42.564;23.164;2023-04-03T03:27:27;2.38;;;2.20;;
7747;SDS011;3918;42.564;23.164;2023-04-03T03:29:54;2.13;;;2.03;;
7747;SDS011;3918;42.564;23.164;2023-04-03T03:32:22;2.60;;;2.40;;
7747;SDS011;3918;42.564;23.164;2023-04-03T03:34:49;8.70;;;5.07;;
7747;SDS011;3918;42.564;23.164;2023-04-03T03:37:16;6.72;;;4.18;;
7747;SDS011;3918;42.564;23.164;2023-04-03T03:39:43;2.60;;;2.40;;
7747;SDS011;3918;42.564;23.164;2023-04-03T03:42:10;2.97;;;2.70;;
7747;SDS011;3918;42.564;23.164;2023-04-03T03:44:36;2.22;;;2.03;;
7747;SDS011;3918;42.564;23.164;2023-04-03T03:47:03;2.00;;;1.90;;
7747;SDS011;3918;42.564;23.164;2023-04-03T03:49:32;2.58;;;2.13;;
7747;SDS011;3918;42.564;23.164;2023-04-03T03:51:59;1.67;;;1.58;;
7747;SDS011;3918;42.564;23.164;2023-04-03T03:54:26;1.80;;;1.70;;
7747;SDS011;3918;42.564;23.164;2023-04-03T03:56:52;5.68;;;2.85;;
7747;SDS011;3918;42.564;23.164;2023-04-03T03:59:19;5.20;;;1.77;;
7747;SDS011;3918;42.564;23.164;2023-04-03T04:01:46;4.10;;;1.90;;
7747;SDS011;3918;42.564;23.164;2023-04-03T04:04:12;3.38;;;2.03;;
7747;SDS011;3918;42.564;23.164;2023-04-03T04:06:41;1.20;;;1.20;;
7747;SDS011;3918;42.564;23.164;2023-04-03T04:09:08;3.05;;;1.88;;
7747;SDS011;3918;42.564;23.164;2023-04-03T04:11:35;2.15;;;1.35;;
7747;SDS011;3918;42.564;23.164;2023-04-03T04:14:02;1.50;;;1.50;;
7747;SDS011;3918;42.564;23.164;2023-04-03T04:16:28;1.52;;;1.52;;
7747;SDS011;3918;42.564;23.164;2023-04-03T04:18:55;7.57;;;1.92;;
7747;SDS011;3918;42.564;23.164;2023-04-03T04:21:22;6.40;;;1.70;;
7747;SDS011;3918;42.564;23.164;2023-04-03T04:23:50;1.83;;;1.73;;
7747;SDS011;3918;42.564;23.164;2023-04-03T04:26:16;1.90;;;1.80;;
7747;SDS011;3918;42.564;23.164;2023-04-03T04:28:43;2.72;;;2.53;;
7747;SDS011;3918;42.564;23.164;2023-04-03T04:31:10;4.13;;;2.70;;
7747;SDS011;3918;42.564;23.164;2023-04-03T04:33:37;6.70;;;3.80;;
7747;SDS011;3918;42.564;23.164;2023-04-03T04:36:03;3.33;;;3.03;;
7747;SDS011;3918;42.564;23.164;2023-04-03T04:38:30;6.82;;;2.55;;
7747;SDS011;3918;42.564;23.164;2023-04-03T04:40:58;2.50;;;2.40;;
7747;SDS011;3918;42.564;23.164;2023-04-03T04:43:25;5.10;;;2.35;;
7747;SDS011;3918;42.564;23.164;2023-04-03T04:45:59;11.60;;;3.15;;
7747;SDS011;3918;42.564;23.164;2023-04-03T04:48:27;6.43;;;2.60;;
7747;SDS011;3918;42.564;23.164;2023-04-03T04:50:54;7.18;;;2.70;;
7747;SDS011;3918;42.564;23.164;2023-04-03T04:53:21;9.55;;;2.90;;
7747;SDS011;3918;42.564;23.164;2023-04-03T04:55:48;6.32;;;2.40;;
7747;SDS011;3918;42.564;23.164;2023-04-03T04:58:16;8.52;;;3.47;;
7747;SDS011;3918;42.564;23.164;2023-04-03T05:00:42;6.30;;;2.60;;
7747;SDS011;3918;42.564;23.164;2023-04-03T05:03:09;20.23;;;3.90;;
7747;SDS011;3918;42.564;23.164;2023-04-03T05:05:36;16.98;;;3.45;;
7747;SDS011;3918;42.564;23.164;2023-04-03T05:08:03;17.38;;;3.65;;
7747;SDS011;3918;42.564;23.164;2023-04-03T05:10:30;5.50;;;3.28;;
7747;SDS011;3918;42.564;23.164;2023-04-03T05:12:57;4.00;;;2.70;;
7747;SDS011;3918;42.564;23.164;2023-04-03T05:15:25;4.13;;;2.10;;
7747;SDS011;3918;42.564;23.164;2023-04-03T05:17:52;4.68;;;3.20;;
7747;SDS011;3918;42.564;23.164;2023-04-03T05:20:19;7.75;;;3.53;;
7747;SDS011;3918;42.564;23.164;2023-04-03T05:22:46;14.32;;;4.07;;
7747;SDS011;3918;42.564;23.164;2023-04-03T05:25:12;4.85;;;3.38;;
7747;SDS011;3918;42.564;23.164;2023-04-03T05:27:40;4.90;;;3.28;;
7747;SDS011;3918;42.564;23.164;2023-04-03T05:30:07;6.32;;;3.65;;
7747;SDS011;3918;42.564;23.164;2023-04-03T05:32:36;5.50;;;3.00;;
7747;SDS011;3918;42.564;23.164;2023-04-03T05:35:03;5.53;;;2.78;;
7747;SDS011;3918;42.564;23.164;2023-04-03T05:37:30;9.98;;;3.33;;
7747;SDS011;3918;42.564;23.164;2023-04-03T05:39:57;7.60;;;3.63;;
7747;SDS011;3918;42.564;23.164;2023-04-03T05:42:24;7.75;;;3.40;;
7747;SDS011;3918;42.564;23.164;2023-04-03T05:44:51;8.93;;;3.20;;
7747;SDS011;3918;42.564;23.164;2023-04-03T05:47:18;14.43;;;4.30;;
7747;SDS011;3918;42.564;23.164;2023-04-03T05:49:46;14.35;;;3.47;;
7747;SDS011;3918;42.564;23.164;2023-04-03T05:52:17;13.93;;;3.72;;
7747;SDS011;3918;42.564;23.164;2023-04-03T05:54:47;5.97;;;3.08;;
7747;SDS011;3918;42.564;23.164;2023-04-03T05:57:13;8.65;;;3.20;;
7747;SDS011;3918;42.564;23.164;2023-04-03T05:59:41;22.92;;;6.55;;
7747;SDS011;3918;42.564;23.164;2023-04-03T06:02:09;14.73;;;3.72;;
7747;SDS011;3918;42.564;23.164;2023-04-03T06:04:37;9.88;;;3.65;;
7747;SDS011;3918;42.564;23.164;2023-04-03T06:07:05;10.73;;;3.40;;
7747;SDS011;3918;42.564;23.164;2023-04-03T06:09:33;9.80;;;4.20;;
7747;SDS011;3918;42.564;23.164;2023-04-03T06:12:01;12.55;;;4.07;;
7747;SDS011;3918;42.564;23.164;2023-04-03T06:14:28;7.35;;;3.53;;
7747;SDS011;3918;42.564;23.164;2023-04-03T06:16:55;7.07;;;3.55;;
7747;SDS011;3918;42.564;23.164;2023-04-03T06:19:22;9.98;;;3.67;;
7747;SDS011;3918;42.564;23.164;2023-04-03T06:21:49;6.97;;;3.38;;
7747;SDS011;3918;42.564;23.164;2023-04-03T06:24:17;11.02;;;3.67;;
7747;SDS011;3918;42.564;23.164;2023-04-03T06:26:44;14.20;;;3.33;;
7747;SDS011;3918;42.564;23.164;2023-04-03T06:29:11;7.38;;;3.42;;
7747;SDS011;3918;42.564;23.164;2023-04-03T06:31:38;12.20;;;3.30;;
7747;SDS011;3918;42.564;23.164;2023-04-03T06:34:05;21.75;;;3.72;;
7747;SDS011;3918;42.564;23.164;2023-04-03T06:36:32;14.43;;;4.00;;
7747;SDS011;3918;42.564;23.164;2023-04-03T06:38:59;11.68;;;3.60;;
7747;SDS011;3918;42.564;23.164;2023-04-03T06:41:27;4.70;;;3.08;;
7747;SDS011;3918;42.564;23.164;2023-04-03T06:43:54;7.28;;;3.75;;
7747;SDS011;3918;42.564;23.164;2023-04-03T06:46:23;10.57;;;3.72;;
7747;SDS011;3918;42.564;23.164;2023-04-03T06:48:50;34.80;;;5.15;;
7747;SDS011;3918;42.564;23.164;2023-04-03T06:51:18;10.32;;;4.10;;
7747;SDS011;3918;42.564;23.164;2023-04-03T06:53:46;5.82;;;3.72;;
7747;SDS011;3918;42.564;23.164;2023-04-03T06:56:13;9.00;;;4.05;;
7747;SDS011;3918;42.564;23.164;2023-04-03T06:58:43;8.65;;;3.63;;
7747;SDS011;3918;42.564;23.164;2023-04-03T07:01:10;12.98;;;4.03;;
7747;SDS011;3918;42.564;23.164;2023-04-03T07:03:39;11.98;;;4.35;;
7747;SDS011;3918;42.564;23.164;2023-04-03T07:06:07;7.90;;;4.15;;
7747;SDS011;3918;42.564;23.164;2023-04-03T07:08:37;10.77;;;3.80;;
7747;SDS011;3918;42.564;23.164;2023-04-03T07:11:04;11.20;;;3.90;;
7747;SDS011;3918;42.564;23.164;2023-04-03T07:13:31;16.08;;;4.03;;
7747;SDS011;3918;42.564;23.164;2023-04-03T07:16:00;13.05;;;4.82;;
7747;SDS011;3918;42.564;23.164;2023-04-03T07:18:28;12.07;;;4.30;;
7747;SDS011;3918;42.564;23.164;2023-04-03T07:20:55;19.42;;;3.83;;
7747;SDS011;3918;42.564;23.164;2023-04-03T07:23:22;22.75;;;4.53;;
7747;SDS011;3918;42.564;23.164;2023-04-03T07:25:50;18.00;;;5.70;;
7747;SDS011;3918;42.564;23.164;2023-04-03T07:28:18;13.68;;;4.72;;
7747;SDS011;3918;42.564;23.164;2023-04-03T07:30:46;21.40;;;5.10;;
7747;SDS011;3918;42.564;23.164;2023-04-03T07:33:15;20.05;;;4.57;;
7747;SDS011;3918;42.564;23.164;2023-04-03T07:35:44;11.85;;;5.32;;
7747;SDS011;3918;42.564;23.164;2023-04-03T07:38:10;14.95;;;4.82;;
7747;SDS011;3918;42.564;23.164;2023-04-03T07:40:38;19.77;;;5.40;;
7747;SDS011;3918;42.564;23.164;2023-04-03T07:43:05;21.33;;;4.85;;
7747;SDS011;3918;42.564;23.164;2023-04-03T07:45:34;13.27;;;5.20;;
7747;SDS011;3918;42.564;23.164;2023-04-03T07:48:02;60.97;;;6.88;;
7747;SDS011;3918;42.564;23.164;2023-04-03T07:50:31;13.77;;;5.38;;
7747;SDS011;3918;42.564;23.164;2023-04-03T07:52:58;10.07;;;4.03;;
7747;SDS011;3918;42.564;23.164;2023-04-03T07:55:25;8.18;;;4.18;;
7747;SDS011;3918;42.564;23.164;2023-04-03T07:57:51;3.60;;;3.00;;
7747;SDS011;3918;42.564;23.164;2023-04-03T08:00:18;3.17;;;2.88;;
7747;SDS011;3918;42.564;23.164;2023-04-03T08:02:45;3.75;;;2.75;;
7747;SDS011;3918;42.564;23.164;2023-04-03T08:05:15;3.72;;;2.72;;
7747;SDS011;3918;42.564;23.164;2023-04-03T08:07:43;4.15;;;3.03;;
7747;SDS011;3918;42.564;23.164;2023-04-03T08:10:11;4.70;;;3.00;;
7747;SDS011;3918;42.564;23.164;2023-04-03T08:12:38;4.03;;;2.75;;
7747;SDS011;3918;42.564;23.164;2023-04-03T08:15:05;6.75;;;2.67;;
7747;SDS011;3918;42.564;23.164;2023-04-03T08:17:33;2.22;;;2.03;;
7747;SDS011;3918;42.564;23.164;2023-04-03T08:20:00;11.10;;;2.60;;
7747;SDS011;3918;42.564;23.164;2023-04-03T08:22:27;11.18;;;2.67;;
7747;SDS011;3918;42.564;23.164;2023-04-03T08:24:58;60.78;;;4.22;;
7747;SDS011;3918;42.564;23.164;2023-04-03T08:27:26;9.00;;;2.33;;
7747;SDS011;3918;42.564;23.164;2023-04-03T08:29:53;9.07;;;2.20;;
7747;SDS011;3918;42.564;23.164;2023-04-03T08:32:20;5.85;;;2.72;;
7747;SDS011;3918;42.564;23.164;2023-04-03T08:34:47;6.53;;;2.75;;
7747;SDS011;3918;42.564;23.164;2023-04-03T08:37:14;20.80;;;3.38;;
7747;SDS011;3918;42.564;23.164;2023-04-03T08:39:41;8.75;;;3.08;;
7747;SDS011;3918;42.564;23.164;2023-04-03T08:42:14;4.97;;;2.83;;
7747;SDS011;3918;42.564;23.164;2023-04-03T08:44:46;4.93;;;3.20;;
7747;SDS011;3918;42.564;23.164;2023-04-03T08:47:22;9.43;;;2.50;;
7747;SDS011;3918;42.564;23.164;2023-04-03T08:49:53;3.58;;;2.53;;
7747;SDS011;3918;42.564;23.164;2023-04-03T08:52:25;10.18;;;2.47;;
7747;SDS011;3918;42.564;23.164;2023-04-03T08:55:01;5.80;;;2.30;;
7747;SDS011;3918;42.564;23.164;2023-04-03T08:57:32;3.95;;;2.30;;
7747;SDS011;3918;42.564;23.164;2023-04-03T09:00:03;10.45;;;2.97;;
7747;SDS011;3918;42.564;23.164;2023-04-03T09:02:33;3.63;;;2.50;;
7747;SDS011;3918;42.564;23.164;2023-04-03T09:05:11;2.03;;;1.70;;
7747;SDS011;3918;42.564;23.164;2023-04-03T09:07:42;10.60;;;2.28;;
7747;SDS011;3918;42.564;23.164;2023-04-03T09:10:18;16.88;;;2.25;;
7747;SDS011;3918;42.564;23.164;2023-04-03T09:12:52;3.95;;;2.28;;
7747;SDS011;3918;42.564;23.164;2023-04-03T09:15:25;44.78;;;4.53;;
7747;SDS011;3918;42.564;23.164;2023-04-03T09:17:55;59.10;;;5.82;;
7747;SDS011;3918;42.564;23.164;2023-04-03T09:20:30;17.20;;;3.35;;
7747;SDS011;3918;42.564;23.164;2023-04-03T09:23:09;3.40;;;2.67;;
7747;SDS011;3918;42.564;23.164;2023-04-03T09:25:44;3.60;;;3.28;;
7747;SDS011;3918;42.564;23.164;2023-04-03T09:28:13;34.28;;;5.20;;
7747;SDS011;3918;42.564;23.164;2023-04-03T09:30:40;2.65;;;2.45;;
7747;SDS011;3918;42.564;23.164;2023-04-03T09:33:07;2.97;;;2.78;;
7747;SDS011;3918;42.564;23.164;2023-04-03T09:35:35;10.48;;;2.72;;
7747;SDS011;3918;42.564;23.164;2023-04-03T09:38:14;14.48;;;3.25;;
7747;SDS011;3918;42.564;23.164;2023-04-03T09:40:44;5.28;;;2.90;;
7747;SDS011;3918;42.564;23.164;2023-04-03T09:43:23;20.25;;;3.97;;
7747;SDS011;3918;42.564;23.164;2023-04-03T09:45:52;6.85;;;3.65;;
7747;SDS011;3918;42.564;23.164;2023-04-03T09:48:20;7.68;;;3.10;;
7747;SDS011;3918;42.564;23.164;2023-04-03T09:50:58;8.63;;;3.75;;
7747;SDS011;3918;42.564;23.164;2023-04-03T09:53:32;7.95;;;3.72;;
7747;SDS011;3918;42.564;23.164;2023-04-03T09:56:02;3.05;;;2.65;;
7747;SDS011;3918;42.564;23.164;2023-04-03T09:58:33;13.38;;;3.28;;
7747;SDS011;3918;42.564;23.164;2023-04-03T10:01:04;3.78;;;3.10;;
7747;SDS011;3918;42.564;23.164;2023-04-03T10:03:31;3.78;;;2.25;;
7747;SDS011;3918;42.564;23.164;2023-04-03T10:06:01;8.27;;;2.83;;
7747;SDS011;3918;42.564;23.164;2023-04-03T10:08:30;2.00;;;1.60;;
7747;SDS011;3918;42.564;23.164;2023-04-03T10:11:05;6.03;;;3.33;;
7747;SDS011;3918;42.564;23.164;2023-04-03T10:13:42;3.95;;;2.15;;
7747;SDS011;3918;42.564;23.164;2023-04-03T10:16:17;4.10;;;2.40;;
7747;SDS011;3918;42.564;23.164;2023-04-03T10:18:48;1.95;;;1.85;;
7747;SDS011;3918;42.564;23.164;2023-04-03T10:21:24;3.03;;;1.60;;
7747;SDS011;3918;42.564;23.164;2023-04-03T10:24:04;1.63;;;1.52;;
7747;SDS011;3918;42.564;23.164;2023-04-03T10:26:39;1.15;;;1.05;;
7747;SDS011;3918;42.564;23.164;2023-04-03T10:29:15;0.90;;;0.70;;
7747;SDS011;3918;42.564;23.164;2023-04-03T10:31:51;1.27;;;1.10;;
7747;SDS011;3918;42.564;23.164;2023-04-03T10:34:28;2.67;;;1.30;;
7747;SDS011;3918;42.564;23.164;2023-04-03T10:37:00;2.42;;;0.95;;
7747;SDS011;3918;42.564;23.164;2023-04-03T10:39:34;1.90;;;1.30;;
7747;SDS011;3918;42.564;23.164;2023-04-03T10:42:07;3.13;;;1.40;;
7747;SDS011;3918;42.564;23.164;2023-04-03T10:44:46;0.75;;;0.75;;
7747;SDS011;3918;42.564;23.164;2023-04-03T10:47:22;8.55;;;1.80;;
7747;SDS011;3918;42.564;23.164;2023-04-03T10:49:55;1.23;;;1.20;;
7747;SDS011;3918;42.564;23.164;2023-04-03T10:52:29;3.35;;;1.42;;
7747;SDS011;3918;42.564;23.164;2023-04-03T10:55:09;1.77;;;1.30;;
7747;SDS011;3918;42.564;23.164;2023-04-03T10:57:50;3.72;;;1.50;;
7747;SDS011;3918;42.564;23.164;2023-04-03T11:00:20;10.52;;;1.55;;
7747;SDS011;3918;42.564;23.164;2023-04-03T11:02:54;1.08;;;1.05;;
7747;SDS011;3918;42.564;23.164;2023-04-03T11:05:26;3.17;;;1.40;;
7747;SDS011;3918;42.564;23.164;2023-04-03T11:07:59;1.70;;;1.60;;
7747;SDS011;3918;42.564;23.164;2023-04-03T11:10:31;1.92;;;1.40;;
7747;SDS011;3918;42.564;23.164;2023-04-03T11:13:07;2.22;;;1.30;;
7747;SDS011;3918;42.564;23.164;2023-04-03T11:15:40;4.72;;;1.67;;
7747;SDS011;3918;42.564;23.164;2023-04-03T11:18:10;11.05;;;1.80;;
7747;SDS011;3918;42.564;23.164;2023-04-03T11:20:41;6.75;;;1.80;;
7747;SDS011;3918;42.564;23.164;2023-04-03T11:23:13;2.70;;;2.17;;
7747;SDS011;3918;42.564;23.164;2023-04-03T11:25:45;2.45;;;1.52;;
7747;SDS011;3918;42.564;23.164;2023-04-03T11:28:18;1.90;;;1.50;;
7747;SDS011;3918;42.564;23.164;2023-04-03T11:30:47;2.55;;;1.60;;
7747;SDS011;3918;42.564;23.164;2023-04-03T11:33:26;2.90;;;1.75;;
7747;SDS011;3918;42.564;23.164;2023-04-03T11:35:59;1.60;;;1.50;;
7747;SDS011;3918;42.564;23.164;2023-04-03T11:38:32;2.53;;;1.75;;
7747;SDS011;3918;42.564;23.164;2023-04-03T11:41:04;2.10;;;1.10;;
7747;SDS011;3918;42.564;23.164;2023-04-03T11:43:39;0.80;;;0.80;;
7747;SDS011;3918;42.564;23.164;2023-04-03T11:46:10;2.40;;;0.85;;
7747;SDS011;3918;42.564;23.164;2023-04-03T11:48:50;1.75;;;1.65;;
7747;SDS011;3918;42.564;23.164;2023-04-03T11:51:40;6.40;;;2.47;;
7747;SDS011;3918;42.564;23.164;2023-04-03T12:03:35;2.67;;;1.50;;
7747;SDS011;3918;42.564;23.164;2023-04-03T12:12:39;4.70;;;1.63;;
7747;SDS011;3918;42.564;23.164;2023-04-03T12:15:21;6.38;;;1.10;;
7747;SDS011;3918;42.564;23.164;2023-04-03T12:17:50;1.33;;;1.25;;
7747;SDS011;3918;42.564;23.164;2023-04-03T12:23:25;1.20;;;1.15;;
7747;SDS011;3918;42.564;23.164;2023-04-03T12:26:00;2.25;;;1.60;;
7747;SDS011;3918;42.564;23.164;2023-04-03T12:28:34;2.03;;;1.40;;
7747;SDS011;3918;42.564;23.164;2023-04-03T12:31:04;1.95;;;1.40;;
7747;SDS011;3918;42.564;23.164;2023-04-03T12:33:36;1.92;;;1.83;;
7747;SDS011;3918;42.564;23.164;2023-04-03T12:36:13;1.40;;;1.30;;
7747;SDS011;3918;42.564;23.164;2023-04-03T12:38:58;1.52;;;1.42;;
7747;SDS011;3918;42.564;23.164;2023-04-03T12:41:38;1.30;;;1.25;;
7747;SDS011;3918;42.564;23.164;2023-04-03T12:44:17;1.98;;;1.88;;
7747;SDS011;3918;42.564;23.164;2023-04-03T12:46:52;1.50;;;1.40;;
7747;SDS011;3918;42.564;23.164;2023-04-03T12:52:04;1.65;;;1.55;;
7747;SDS011;3918;42.564;23.164;2023-04-03T12:54:42;1.63;;;1.52;;
7747;SDS011;3918;42.564;23.164;2023-04-03T12:57:20;1.48;;;1.38;;
7747;SDS011;3918;42.564;23.164;2023-04-03T12:59:48;1.60;;;1.50;;
7747;SDS011;3918;42.564;23.164;2023-04-03T13:02:20;1.90;;;1.50;;
7747;SDS011;3918;42.564;23.164;2023-04-03T13:04:49;1.70;;;1.60;;
7747;SDS011;3918;42.564;23.164;2023-04-03T13:07:21;1.63;;;1.52;;
7747;SDS011;3918;42.564;23.164;2023-04-03T13:10:01;5.07;;;2.00;;
7747;SDS011;3918;42.564;23.164;2023-04-03T13:12:46;1.10;;;1.10;;
7747;SDS011;3918;42.564;23.164;2023-04-03T13:15:16;1.10;;;1.10;;
7747;SDS011;3918;42.564;23.164;2023-04-03T13:17:45;1.10;;;1.10;;
7747;SDS011;3918;42.564;23.164;2023-04-03T13:20:16;1.30;;;1.20;;
7747;SDS011;3918;42.564;23.164;2023-04-03T13:22:48;1.48;;;1.20;;
7747;SDS011;3918;42.564;23.164;2023-04-03T13:25:19;4.20;;;0.90;;
7747;SDS011;3918;42.564;23.164;2023-04-03T13:27:50;1.00;;;1.00;;
7747;SDS011;3918;42.564;23.164;2023-04-03T13:30:27;0.80;;;0.80;;
7747;SDS011;3918;42.564;23.164;2023-04-03T13:32:56;1.60;;;1.50;;
7747;SDS011;3918;42.564;23.164;2023-04-03T13:35:32;1.00;;;0.85;;
7747;SDS011;3918;42.564;23.164;2023-04-03T13:38:02;0.90;;;0.90;;
7747;SDS011;3918;42.564;23.164;2023-04-03T13:40:33;0.70;;;0.70;;
7747;SDS011;3918;42.564;23.164;2023-04-03T13:43:03;1.23;;;0.85;;
7747;SDS011;3918;42.564;23.164;2023-04-03T13:45:32;3.65;;;0.98;;
7747;SDS011;3918;42.564;23.164;2023-04-03T13:48:08;1.45;;;1.35;;
7747;SDS011;3918;42.564;23.164;2023-04-03T13:50:55;1.40;;;1.27;;
7747;SDS011;3918;42.564;23.164;2023-04-03T13:53:24;1.40;;;1.30;;
7747;SDS011;3918;42.564;23.164;2023-04-03T13:55:54;1.35;;;1.05;;
7747;SDS011;3918;42.564;23.164;2023-04-03T13:58:25;3.65;;;1.00;;
7747;SDS011;3918;42.564;23.164;2023-04-03T14:00:53;1.40;;;1.30;;
7747;SDS011;3918;42.564;23.164;2023-04-03T14:03:22;1.85;;;1.75;;
7747;SDS011;3918;42.564;23.164;2023-04-03T14:05:51;1.15;;;0.98;;
7747;SDS011;3918;42.564;23.164;2023-04-03T14:08:18;1.17;;;1.17;;
7747;SDS011;3918;42.564;23.164;2023-04-03T14:10:46;1.40;;;1.30;;
7747;SDS011;3918;42.564;23.164;2023-04-03T14:13:15;1.45;;;1.35;;
7747;SDS011;3918;42.564;23.164;2023-04-03T14:15:45;1.52;;;1.42;;
7747;SDS011;3918;42.564;23.164;2023-04-03T14:18:14;1.65;;;1.40;;
7747;SDS011;3918;42.564;23.164;2023-04-03T14:20:42;1.15;;;1.05;;
7747;SDS011;3918;42.564;23.164;2023-04-03T14:23:10;1.17;;;1.10;;
7747;SDS011;3918;42.564;23.164;2023-04-03T14:25:37;1.30;;;1.20;;
7747;SDS011;3918;42.564;23.164;2023-04-03T14:28:12;3.00;;;1.35;;
7747;SDS011;3918;42.564;23.164;2023-04-03T14:30:42;1.17;;;1.00;;
7747;SDS011;3918;42.564;23.164;2023-04-03T14:33:11;3.17;;;0.88;;
7747;SDS011;3918;42.564;23.164;2023-04-03T14:35:41;1.17;;;1.17;;
7747;SDS011;3918;42.564;23.164;2023-04-03T14:38:13;0.80;;;0.80;;
7747;SDS011;3918;42.564;23.164;2023-04-03T14:40:48;1.92;;;1.08;;
7747;SDS011;3918;42.564;23.164;2023-04-03T14:43:15;3.25;;;1.10;;
7747;SDS011;3918;42.564;23.164;2023-04-03T14:45:42;1.00;;;1.00;;
7747;SDS011;3918;42.564;23.164;2023-04-03T14:48:11;1.10;;;1.05;;
7747;SDS011;3918;42.564;23.164;2023-04-03T14:50:44;0.90;;;0.90;;
7747;SDS011;3918;42.564;23.164;2023-04-03T14:53:11;1.45;;;1.35;;
7747;SDS011;3918;42.564;23.164;2023-04-03T14:55:39;1.30;;;1.20;;
7747;SDS011;3918;42.564;23.164;2023-04-03T14:58:08;2.30;;;2.00;;
7747;SDS011;3918;42.564;23.164;2023-04-03T15:00:38;1.80;;;1.70;;
7747;SDS011;3918;42.564;23.164;2023-04-03T15:03:04;2.15;;;1.30;;
7747;SDS011;3918;42.564;23.164;2023-04-03T15:05:33;1.40;;;1.30;;
7747;SDS011;3918;42.564;23.164;2023-04-03T15:08:02;1.25;;;1.00;;
7747;SDS011;3918;42.564;23.164;2023-04-03T15:10:30;1.15;;;1.05;;
7747;SDS011;3918;42.564;23.164;2023-04-03T15:12:58;8.77;;;4.30;;
7747;SDS011;3918;42.564;23.164;2023-04-03T15:15:27;2.22;;;2.03;;
7747;SDS011;3918;42.564;23.164;2023-04-03T15:17:56;4.07;;;2.95;;
7747;SDS011;3918;42.564;23.164;2023-04-03T15:20:24;1.60;;;1.50;;
7747;SDS011;3918;42.564;23.164;2023-04-03T15:22:54;1.60;;;1.50;;
7747;SDS011;3918;42.564;23.164;2023-04-03T15:25:22;1.60;;;1.50;;
7747;SDS011;3918;42.564;23.164;2023-04-03T15:27:49;5.00;;;1.50;;
7747;SDS011;3918;42.564;23.164;2023-04-03T15:30:17;27.15;;;9.65;;
7747;SDS011;3918;42.564;23.164;2023-04-03T15:32:45;2.63;;;2.20;;